createdAt,value
2018-07-17T00:00:14.008Z,23.36
2018-07-17T00:01:17.592Z,23.56
2018-07-17T00:02:21.403Z,23.64
2018-07-17T00:03:23.995Z,23.84
2018-07-17T00:04:26.611Z,24.10
2018-07-17T00:05:29.382Z,24.27
2018-07-17T00:06:31.890Z,24.54
2018-07-17T00:07:34.717Z,24.72
2018-07-17T00:08:37.212Z,24.86
2018-07-17T00:09:39.810Z,24.93
2018-07-17T00:10:42.304Z,25.00
2018-07-17T00:11:44.823Z,25.07
2018-07-17T00:12:47.366Z,25.11
2018-07-17T00:13:50.779Z,25.12
2018-07-17T00:14:53.477Z,25.11
2018-07-17T00:15:56.019Z,25.05
2018-07-17T00:16:58.515Z,25.07
2018-07-17T00:18:01.033Z,25.09
2018-07-17T00:19:03.559Z,25.12
2018-07-17T00:20:06.350Z,25.11
2018-07-17T00:21:08.855Z,25.10
2018-07-17T00:22:11.350Z,25.10
2018-07-17T00:23:14.870Z,25.12
2018-07-17T00:24:17.382Z,25.13
2018-07-17T00:25:20.892Z,25.14
2018-07-17T00:26:23.802Z,25.16
2018-07-17T00:27:26.324Z,25.16
2018-07-17T00:28:28.816Z,25.14
2018-07-17T00:29:31.344Z,25.11
2018-07-17T00:30:34.455Z,25.13
2018-07-17T00:31:36.977Z,25.14
2018-07-17T00:32:39.764Z,25.11
2018-07-17T00:33:42.309Z,25.12
2018-07-17T00:34:44.808Z,25.12
2018-07-17T00:35:47.321Z,25.12
2018-07-17T00:36:49.834Z,25.12
2018-07-17T00:37:52.357Z,25.10
2018-07-17T00:38:55.173Z,25.10
2018-07-17T00:39:57.682Z,25.08
2018-07-17T00:41:00.227Z,25.07
2018-07-17T00:42:02.732Z,25.08
2018-07-17T00:43:05.227Z,25.08
2018-07-17T00:44:07.741Z,25.09
2018-07-17T00:45:10.540Z,25.05
2018-07-17T00:46:13.051Z,25.03
2018-07-17T00:47:15.598Z,25.04
2018-07-17T00:48:18.125Z,25.05
2018-07-17T00:49:20.614Z,25.11
2018-07-17T00:50:23.119Z,25.10
2018-07-17T00:51:25.628Z,25.03
2018-07-17T00:52:28.130Z,25.03
2018-07-17T00:53:30.634Z,25.01
2018-07-17T00:54:33.130Z,24.99
2018-07-17T00:55:36.247Z,24.95
2018-07-17T00:56:38.794Z,24.92
2018-07-17T00:57:42.328Z,24.91
2018-07-17T00:58:44.829Z,24.93
2018-07-17T00:59:47.353Z,24.83
2018-07-17T01:00:49.907Z,24.81
2018-07-17T01:01:52.446Z,24.70
2018-07-17T01:02:54.962Z,24.67
2018-07-17T01:03:57.781Z,24.65
2018-07-17T01:05:00.336Z,24.64
2018-07-17T01:06:03.465Z,24.61
2018-07-17T01:07:06.035Z,24.56
2018-07-17T01:08:08.549Z,24.70
2018-07-17T01:09:11.064Z,24.79
2018-07-17T01:10:13.882Z,24.80
2018-07-17T01:11:16.396Z,24.85
2018-07-17T01:12:18.894Z,24.85
2018-07-17T01:13:21.387Z,24.83
2018-07-17T01:14:23.911Z,24.84
2018-07-17T01:15:26.409Z,24.83
2018-07-17T01:16:29.214Z,24.84
2018-07-17T01:17:31.719Z,24.84
2018-07-17T01:18:34.382Z,24.84
2018-07-17T01:19:38.069Z,24.81
2018-07-17T01:20:40.580Z,24.82
2018-07-17T01:21:43.084Z,24.85
2018-07-17T01:22:45.883Z,24.83
2018-07-17T01:23:48.435Z,24.83
2018-07-17T01:24:50.926Z,24.56
2018-07-17T01:25:54.072Z,24.29
2018-07-17T01:26:56.577Z,24.15
2018-07-17T01:27:59.081Z,24.07
2018-07-17T01:29:01.965Z,24.27
2018-07-17T01:30:04.515Z,24.13
2018-07-17T01:31:07.048Z,24.29
2018-07-17T01:32:09.577Z,24.21
2018-07-17T01:33:12.074Z,24.46
2018-07-17T01:34:14.575Z,24.42
2018-07-17T01:35:17.345Z,24.48
2018-07-17T01:36:19.856Z,24.60
2018-07-17T01:37:22.393Z,24.38
2018-07-17T01:38:24.922Z,24.33
2018-07-17T01:39:27.457Z,24.30
2018-07-17T01:40:29.979Z,24.05
2018-07-17T01:41:33.783Z,24.21
2018-07-17T01:42:36.398Z,24.29
2018-07-17T01:43:38.916Z,24.09
2018-07-17T01:44:41.436Z,23.82
2018-07-17T01:45:43.949Z,23.71
2018-07-17T01:46:46.442Z,23.69
2018-07-17T01:47:49.242Z,23.71
2018-07-17T01:48:51.773Z,23.81
2018-07-17T01:49:54.294Z,23.80
2018-07-17T01:50:56.792Z,23.81
2018-07-17T01:51:59.308Z,23.77
2018-07-17T01:53:01.814Z,23.84
2018-07-17T01:54:04.634Z,23.92
2018-07-17T01:55:07.160Z,23.78
2018-07-17T01:56:09.685Z,23.91
2018-07-17T01:57:12.185Z,24.14
2018-07-17T01:58:14.684Z,23.87
2018-07-17T01:59:17.214Z,23.93
2018-07-17T02:00:20.020Z,24.01
2018-07-17T02:01:22.692Z,24.18
2018-07-17T02:02:25.210Z,24.24
2018-07-17T02:03:27.721Z,24.05
2018-07-17T02:04:30.252Z,24.25
2018-07-17T02:05:32.763Z,24.36
2018-07-17T02:06:35.567Z,24.45
2018-07-17T02:07:38.104Z,24.51
2018-07-17T02:08:40.649Z,24.53
2018-07-17T02:09:44.088Z,24.28
2018-07-17T02:10:47.993Z,24.31
2018-07-17T02:11:51.137Z,24.34
2018-07-17T02:12:54.365Z,24.29
2018-07-17T02:13:57.775Z,23.94
2018-07-17T02:15:00.436Z,24.00
2018-07-17T02:16:02.927Z,23.94
2018-07-17T02:17:05.721Z,23.95
2018-07-17T02:18:08.631Z,24.02
2018-07-17T02:19:11.713Z,24.30
2018-07-17T02:20:14.534Z,24.35
2018-07-17T02:21:17.515Z,24.33
2018-07-17T02:22:20.589Z,24.30
2018-07-17T02:23:23.758Z,24.34
2018-07-17T02:24:26.814Z,24.37
2018-07-17T02:25:29.317Z,24.34
2018-07-17T02:26:32.428Z,24.31
2018-07-17T02:27:35.574Z,24.30
2018-07-17T02:28:38.303Z,24.34
2018-07-17T02:29:40.816Z,24.37
2018-07-17T02:30:43.323Z,24.36
2018-07-17T02:31:46.146Z,24.30
2018-07-17T02:32:49.261Z,24.36
2018-07-17T02:33:53.231Z,24.39
2018-07-17T02:34:56.311Z,24.39
2018-07-17T02:35:59.366Z,24.36
2018-07-17T02:37:01.870Z,24.38
2018-07-17T02:38:05.696Z,24.31
2018-07-17T02:39:09.329Z,24.31
2018-07-17T02:40:12.070Z,24.31
2018-07-17T02:41:14.979Z,24.30
2018-07-17T02:42:17.629Z,24.28
2018-07-17T02:43:20.503Z,24.27
2018-07-17T02:44:23.699Z,24.32
2018-07-17T02:45:26.216Z,24.28
2018-07-17T02:46:29.120Z,24.26
2018-07-17T02:47:32.332Z,24.30
2018-07-17T02:48:34.863Z,24.27
2018-07-17T02:49:37.907Z,24.21
2018-07-17T02:50:40.703Z,24.16
2018-07-17T02:51:43.186Z,23.96
2018-07-17T02:52:46.264Z,24.04
2018-07-17T02:53:49.205Z,24.13
2018-07-17T02:54:51.734Z,24.16
2018-07-17T02:55:54.252Z,24.25
2018-07-17T02:56:57.035Z,24.28
2018-07-17T02:57:59.516Z,24.25
2018-07-17T02:59:02.014Z,24.08
2018-07-17T03:00:04.508Z,24.23
2018-07-17T03:01:07.035Z,24.26
2018-07-17T03:02:10.115Z,24.21
2018-07-17T03:03:13.109Z,24.11
2018-07-17T03:04:15.679Z,24.08
2018-07-17T03:05:20.659Z,23.70
2018-07-17T03:06:23.145Z,23.90
2018-07-17T03:07:25.649Z,23.94
2018-07-17T03:08:28.169Z,24.00
2018-07-17T03:09:30.948Z,24.10
2018-07-17T03:10:33.461Z,24.18
2018-07-17T03:11:35.965Z,24.15
2018-07-17T03:12:38.510Z,24.15
2018-07-17T03:13:40.994Z,24.11
2018-07-17T03:14:43.501Z,24.06
2018-07-17T03:15:46.352Z,24.07
2018-07-17T03:16:48.915Z,24.01
2018-07-17T03:17:51.464Z,23.96
2018-07-17T03:18:53.978Z,23.98
2018-07-17T03:19:56.491Z,24.05
2018-07-17T03:20:59.021Z,24.01
2018-07-17T03:22:01.874Z,23.92
2018-07-17T03:23:04.390Z,24.02
2018-07-17T03:24:06.924Z,24.01
2018-07-17T03:25:09.456Z,24.08
2018-07-17T03:26:11.970Z,24.05
2018-07-17T03:27:14.493Z,24.06
2018-07-17T03:28:17.304Z,24.04
2018-07-17T03:29:19.823Z,24.07
2018-07-17T03:30:22.366Z,24.06
2018-07-17T03:31:24.873Z,24.00
2018-07-17T03:32:27.401Z,23.95
2018-07-17T03:33:29.905Z,23.97
2018-07-17T03:34:32.693Z,23.99
2018-07-17T03:35:35.202Z,23.91
2018-07-17T03:36:37.708Z,23.90
2018-07-17T03:37:40.244Z,23.89
2018-07-17T03:38:42.744Z,23.75
2018-07-17T03:39:45.275Z,23.77
2018-07-17T03:40:49.024Z,23.87
2018-07-17T03:41:51.547Z,23.85
2018-07-17T03:42:54.101Z,23.86
2018-07-17T03:43:56.621Z,23.94
2018-07-17T03:44:59.673Z,23.99
2018-07-17T03:46:02.189Z,23.99
2018-07-17T03:47:05.632Z,23.75
2018-07-17T03:48:08.147Z,23.77
2018-07-17T03:49:10.675Z,23.71
2018-07-17T03:50:13.186Z,23.64
2018-07-17T03:51:15.706Z,23.42
2018-07-17T03:52:18.439Z,23.32
2018-07-17T03:53:22.950Z,23.45
2018-07-17T03:54:25.680Z,23.61
2018-07-17T03:55:28.195Z,23.50
2018-07-17T03:56:31.308Z,23.45
2018-07-17T03:57:33.814Z,23.63
2018-07-17T03:58:36.347Z,23.67
2018-07-17T03:59:39.228Z,23.69
2018-07-17T04:00:41.788Z,23.75
2018-07-17T04:01:44.315Z,23.86
2018-07-17T04:02:46.903Z,23.86
2018-07-17T04:03:49.437Z,23.85
2018-07-17T04:04:51.942Z,23.79
2018-07-17T04:05:55.455Z,23.66
2018-07-17T04:06:58.711Z,23.50
2018-07-17T04:08:05.341Z,23.25
2018-07-17T04:09:08.074Z,23.28
2018-07-17T04:10:10.821Z,23.43
2018-07-17T04:11:13.495Z,23.40
2018-07-17T04:12:16.401Z,23.54
2018-07-17T04:14:29.534Z,23.60
2018-07-17T04:15:33.179Z,23.56
2018-07-17T04:16:36.073Z,23.41
2018-07-17T04:17:38.751Z,23.53
2018-07-17T04:18:41.588Z,23.64
2018-07-17T04:19:44.129Z,23.68
2018-07-17T04:20:46.673Z,23.81
2018-07-17T04:21:49.183Z,23.83
2018-07-17T04:22:51.713Z,23.78
2018-07-17T04:23:54.409Z,23.76
2018-07-17T04:24:57.436Z,23.83
2018-07-17T04:25:59.987Z,23.85
2018-07-17T04:27:02.508Z,23.62
2018-07-17T04:28:05.060Z,23.88
2018-07-17T04:29:07.571Z,23.88
2018-07-17T04:30:10.070Z,23.87
2018-07-17T04:31:12.992Z,23.88
2018-07-17T04:32:15.498Z,23.86
2018-07-17T04:33:17.994Z,23.86
2018-07-17T04:34:20.640Z,23.81
2018-07-17T04:35:23.373Z,23.78
2018-07-17T04:36:25.902Z,23.76
2018-07-17T04:37:28.712Z,23.75
2018-07-17T04:38:31.292Z,23.78
2018-07-17T04:39:33.775Z,23.82
2018-07-17T04:40:36.283Z,23.83
2018-07-17T04:41:38.786Z,23.86
2018-07-17T04:42:41.287Z,23.83
2018-07-17T04:43:45.299Z,23.83
2018-07-17T04:44:47.843Z,23.84
2018-07-17T04:45:50.683Z,23.85
2018-07-17T04:46:53.290Z,23.83
2018-07-17T04:47:56.012Z,23.79
2018-07-17T04:48:59.078Z,23.81
2018-07-17T04:50:01.866Z,23.84
2018-07-17T04:51:04.392Z,23.88
2018-07-17T04:52:06.920Z,23.87
2018-07-17T04:53:09.458Z,23.87
2018-07-17T04:54:11.978Z,23.87
2018-07-17T04:55:14.511Z,23.91
2018-07-17T04:56:17.329Z,23.93
2018-07-17T04:57:19.864Z,23.92
2018-07-17T04:58:22.397Z,23.90
2018-07-17T04:59:24.916Z,23.91
2018-07-17T05:00:27.468Z,23.80
2018-07-17T05:01:30.022Z,23.85
2018-07-17T05:02:32.823Z,23.78
2018-07-17T05:03:35.353Z,23.45
2018-07-17T05:04:37.862Z,23.69
2018-07-17T05:05:40.356Z,23.74
2018-07-17T05:06:42.856Z,23.82
2018-07-17T05:07:45.954Z,23.87
2018-07-17T05:08:48.786Z,23.76
2018-07-17T05:09:51.286Z,23.77
2018-07-17T05:10:53.782Z,23.63
2018-07-17T05:11:56.300Z,23.71
2018-07-17T05:12:58.919Z,23.47
2018-07-17T05:14:02.012Z,23.70
2018-07-17T05:15:05.475Z,23.78
2018-07-17T05:16:08.858Z,23.84
2018-07-17T05:17:14.576Z,23.75
2018-07-17T05:18:17.961Z,23.71
2018-07-17T05:19:20.488Z,23.69
2018-07-17T05:20:23.058Z,23.64
2018-07-17T05:21:26.083Z,23.66
2018-07-17T05:22:28.782Z,23.72
2018-07-17T05:23:31.463Z,23.79
2018-07-17T05:24:34.989Z,23.88
2018-07-17T05:25:37.508Z,23.93
2018-07-17T05:26:40.010Z,23.97
2018-07-17T05:27:43.804Z,23.97
2018-07-17T05:28:47.024Z,23.94
2018-07-17T05:29:49.600Z,23.96
2018-07-17T05:30:52.125Z,23.78
2018-07-17T05:31:57.732Z,23.99
2018-07-17T05:33:01.579Z,24.04
2018-07-17T05:34:07.708Z,24.06
2018-07-17T05:35:12.397Z,24.03
2018-07-17T05:36:15.160Z,24.06
2018-07-17T05:37:18.463Z,24.05
2018-07-17T05:38:21.762Z,24.06
2018-07-17T05:39:25.720Z,24.07
2018-07-17T05:40:29.244Z,24.10
2018-07-17T05:41:31.978Z,24.10
2018-07-17T05:42:34.498Z,24.14
2018-07-17T05:43:37.479Z,24.09
2018-07-17T05:44:40.155Z,24.04
2018-07-17T05:45:42.759Z,24.05
2018-07-17T05:46:45.576Z,24.02
2018-07-17T05:47:49.122Z,23.99
2018-07-17T05:48:51.653Z,24.04
2018-07-17T05:49:54.262Z,24.04
2018-07-17T05:50:57.021Z,24.06
2018-07-17T05:51:59.685Z,24.09
2018-07-17T05:53:06.161Z,24.13
2018-07-17T05:54:08.980Z,24.13
2018-07-17T05:55:12.146Z,24.15
2018-07-17T05:56:15.637Z,24.14
2018-07-17T05:57:19.502Z,24.11
2018-07-17T05:58:22.330Z,24.07
2018-07-17T05:59:26.431Z,24.06
2018-07-17T06:00:29.140Z,23.74
2018-07-17T06:01:33.358Z,23.67
2018-07-17T06:02:36.841Z,23.73
2018-07-17T06:03:45.815Z,23.95
2018-07-17T06:04:49.608Z,24.06
2018-07-17T06:05:52.518Z,24.09
2018-07-17T06:06:55.176Z,24.11
2018-07-17T06:07:57.696Z,24.17
2018-07-17T06:09:00.279Z,24.15
2018-07-17T06:10:03.500Z,24.15
2018-07-17T06:11:07.805Z,24.11
2018-07-17T06:12:10.382Z,23.98
2018-07-17T06:13:12.884Z,23.42
2018-07-17T06:14:15.406Z,23.44
2018-07-17T06:15:17.920Z,23.47
2018-07-17T06:16:20.717Z,23.29
2018-07-17T06:17:23.338Z,23.62
2018-07-17T06:18:26.975Z,23.80
2018-07-17T06:19:29.950Z,23.78
2018-07-17T06:20:32.661Z,23.35
2018-07-17T06:21:35.257Z,22.76
2018-07-17T06:22:38.172Z,22.86
2018-07-17T06:23:40.801Z,23.31
2018-07-17T06:24:43.717Z,23.67
2018-07-17T06:25:46.285Z,23.59
2018-07-17T06:26:50.448Z,23.81
2018-07-17T06:27:54.669Z,23.96
2018-07-17T06:29:00.731Z,24.10
2018-07-17T06:30:03.282Z,23.90
2018-07-17T06:31:05.831Z,23.26
2018-07-17T06:32:08.516Z,23.38
2018-07-17T06:33:11.196Z,23.31
2018-07-17T06:34:13.948Z,23.61
2018-07-17T06:35:16.842Z,23.67
2018-07-17T06:36:19.359Z,23.65
2018-07-17T06:37:23.658Z,23.89
2018-07-17T06:38:26.355Z,23.93
2018-07-17T06:39:29.325Z,23.73
2018-07-17T06:40:31.833Z,23.53
2018-07-17T06:41:35.382Z,23.83
2018-07-17T06:42:38.995Z,24.05
2018-07-17T06:43:42.312Z,24.11
2018-07-17T06:44:48.375Z,24.19
2018-07-17T06:46:59.709Z,24.22
2018-07-17T06:48:02.211Z,24.24
2018-07-17T06:49:04.723Z,24.26
2018-07-17T06:50:07.338Z,24.25
2018-07-17T06:51:11.959Z,24.28
2018-07-17T06:52:14.573Z,23.81
2018-07-17T06:53:17.264Z,23.24
2018-07-17T06:54:19.772Z,23.01
2018-07-17T06:55:22.464Z,23.14
2018-07-17T06:56:29.627Z,23.16
2018-07-17T06:57:32.920Z,23.43
2018-07-17T06:58:37.273Z,23.65
2018-07-17T06:59:39.914Z,23.68
2018-07-17T07:00:42.435Z,23.47
2018-07-17T07:01:44.975Z,23.02
2018-07-17T07:02:47.788Z,22.99
2018-07-17T07:03:50.312Z,22.72
2018-07-17T07:04:54.158Z,22.66
2018-07-17T07:05:57.971Z,22.34
2018-07-17T07:07:00.477Z,23.04
2018-07-17T07:08:04.694Z,22.94
2018-07-17T07:09:08.902Z,22.88
2018-07-17T07:10:11.406Z,23.12
2018-07-17T07:11:15.289Z,23.16
2018-07-17T07:12:17.773Z,23.17
2018-07-17T07:13:20.483Z,22.93
2018-07-17T07:14:23.494Z,22.79
2018-07-17T07:15:26.056Z,22.62
2018-07-17T07:16:28.579Z,22.80
2018-07-17T07:17:31.573Z,22.98
2018-07-17T07:18:34.115Z,22.97
2018-07-17T07:19:36.655Z,23.01
2018-07-17T07:20:40.154Z,23.03
2018-07-17T07:21:43.479Z,22.98
2018-07-17T07:22:45.967Z,22.79
2018-07-17T07:23:49.010Z,23.29
2018-07-17T07:24:51.538Z,23.10
2018-07-17T07:25:54.040Z,23.13
2018-07-17T07:26:56.551Z,23.29
2018-07-17T07:27:59.935Z,23.37
2018-07-17T07:29:03.092Z,23.42
2018-07-17T07:30:06.011Z,23.50
2018-07-17T07:31:08.516Z,23.52
2018-07-17T07:32:11.150Z,23.49
2018-07-17T07:33:14.264Z,23.27
2018-07-17T07:34:16.761Z,23.22
2018-07-17T07:35:19.286Z,23.06
2018-07-17T07:36:22.052Z,23.01
2018-07-17T07:37:24.645Z,23.14
2018-07-17T07:38:27.121Z,23.13
2018-07-17T07:39:29.621Z,23.17
2018-07-17T07:40:32.672Z,23.13
2018-07-17T07:41:35.209Z,23.18
2018-07-17T07:42:38.207Z,23.08
2018-07-17T07:43:40.734Z,23.29
2018-07-17T07:44:43.364Z,23.10
2018-07-17T07:45:46.502Z,23.38
2018-07-17T07:46:48.996Z,23.28
2018-07-17T07:47:51.574Z,23.39
2018-07-17T07:48:54.430Z,23.34
2018-07-17T07:49:56.962Z,23.34
2018-07-17T07:50:59.563Z,23.37
2018-07-17T07:52:02.214Z,23.39
2018-07-17T07:53:04.783Z,23.36
2018-07-17T07:54:08.226Z,23.49
2018-07-17T07:55:11.596Z,23.72
2018-07-17T07:56:14.135Z,23.91
2018-07-17T07:57:16.704Z,23.91
2018-07-17T07:58:19.222Z,23.94
2018-07-17T07:59:22.403Z,24.04
2018-07-17T08:00:24.954Z,24.12
2018-07-17T08:01:27.828Z,24.20
2018-07-17T08:02:30.335Z,24.24
2018-07-17T08:03:32.865Z,24.07
2018-07-17T08:04:35.422Z,23.89
2018-07-17T08:05:39.554Z,23.77
2018-07-17T08:06:42.058Z,23.69
2018-07-17T08:07:44.893Z,23.86
2018-07-17T08:08:47.430Z,23.93
2018-07-17T08:09:49.959Z,24.07
2018-07-17T08:10:52.476Z,24.10
2018-07-17T08:16:22.292Z,24.07
2018-07-17T08:17:24.797Z,24.13
2018-07-17T08:18:27.390Z,24.28
2018-07-17T08:19:31.114Z,24.44
2018-07-17T08:22:02.088Z,24.61
2018-07-17T08:23:05.358Z,24.43
2018-07-17T08:24:07.884Z,24.64
2018-07-17T08:25:10.926Z,24.69
2018-07-17T08:26:13.579Z,24.71
2018-07-17T08:27:17.313Z,24.72
2018-07-17T08:28:19.818Z,24.74
2018-07-17T08:29:22.334Z,24.73
2018-07-17T08:30:25.868Z,24.73
2018-07-17T08:31:28.393Z,24.72
2018-07-17T08:32:31.420Z,24.72
2018-07-17T08:33:34.253Z,24.76
2018-07-17T08:34:36.902Z,24.70
2018-07-17T08:35:39.447Z,24.75
2018-07-17T08:36:42.457Z,24.81
2018-07-17T08:37:45.008Z,24.86
2018-07-17T08:38:47.524Z,24.86
2018-07-17T08:39:50.340Z,24.89
2018-07-17T08:40:52.847Z,23.58
2018-07-17T08:41:55.359Z,24.94
2018-07-17T08:42:57.890Z,24.26
2018-07-17T08:44:00.409Z,24.97
2018-07-17T08:45:02.932Z,24.96
2018-07-17T08:46:06.343Z,24.99
2018-07-17T08:47:08.848Z,25.01
2018-07-17T08:48:11.365Z,25.01
2018-07-17T08:49:17.492Z,25.03
2018-07-17T08:50:20.068Z,25.03
2018-07-17T08:51:22.584Z,25.07
2018-07-17T08:52:25.390Z,25.07
2018-07-17T08:53:30.086Z,25.07
2018-07-17T08:54:32.676Z,25.05
2018-07-17T08:55:35.178Z,25.08
2018-07-17T08:56:37.735Z,25.11
2018-07-17T08:57:41.181Z,25.14
2018-07-17T08:58:43.983Z,25.15
2018-07-17T08:59:47.416Z,25.17
2018-07-17T09:00:50.027Z,25.16
2018-07-17T09:01:52.559Z,25.19
2018-07-17T09:02:55.072Z,25.18
2018-07-17T09:03:58.216Z,25.17
2018-07-17T09:05:02.085Z,25.20
2018-07-17T09:06:05.214Z,25.22
2018-07-17T09:07:07.832Z,25.23
2018-07-17T09:08:10.457Z,25.26
2018-07-17T09:09:14.498Z,25.24
2018-07-17T09:10:17.330Z,25.30
2018-07-17T09:11:20.151Z,25.34
2018-07-17T09:12:22.709Z,25.34
2018-07-17T09:13:25.228Z,25.37
2018-07-17T09:14:27.747Z,25.37
2018-07-17T09:15:30.244Z,25.36
2018-07-17T09:16:32.777Z,25.36
2018-07-17T09:17:36.335Z,25.39
2018-07-17T09:18:40.555Z,25.41
2018-07-17T09:19:43.321Z,25.42
2018-07-17T09:20:45.940Z,25.30
2018-07-17T11:41:27.912Z,25.07
2018-07-17T11:42:30.487Z,25.38
2018-07-17T11:43:33.824Z,25.54
2018-07-17T12:39:13.004Z,25.09
2018-07-17T12:40:15.767Z,23.97
2018-07-17T12:41:18.571Z,25.63
2018-07-17T12:42:21.329Z,25.85
2018-07-17T12:43:32.094Z,25.84
2018-07-17T12:48:04.581Z,25.90
2018-07-17T12:49:15.963Z,25.92
2018-07-17T12:50:20.731Z,25.94
2018-07-17T12:52:30.730Z,25.98
2018-07-17T12:53:33.389Z,26.00
2018-07-17T13:17:31.228Z,26.09
2018-07-17T13:18:34.452Z,26.11
2018-07-17T13:19:38.112Z,25.14
2018-07-17T13:20:41.559Z,26.10
2018-07-17T13:21:45.362Z,26.09
2018-07-17T13:22:49.326Z,26.09
2018-07-17T13:23:52.025Z,26.11
2018-07-17T18:25:14.009Z,25.25
2018-07-17T18:26:16.546Z,25.34
2018-07-17T18:27:23.351Z,25.51
2018-07-17T18:28:27.628Z,25.60
2018-07-17T18:29:30.406Z,25.65
2018-07-17T18:30:34.173Z,25.69
2018-07-17T18:31:36.959Z,25.75
2018-07-17T18:32:39.561Z,25.67
2018-07-17T18:33:42.276Z,25.46
2018-07-17T18:34:45.612Z,25.40
2018-07-17T18:35:48.262Z,25.44
2018-07-17T18:36:51.327Z,25.50
2018-07-17T18:37:53.981Z,25.49
2018-07-17T18:38:56.558Z,25.35
2018-07-17T18:39:59.974Z,25.23
2018-07-17T18:41:02.592Z,25.15
2018-07-17T18:42:05.204Z,25.03
2018-07-17T18:43:09.422Z,24.97
2018-07-17T18:44:12.507Z,24.93
2018-07-17T18:45:15.320Z,24.90
2018-07-17T18:46:17.850Z,24.79
2018-07-17T18:47:20.434Z,24.79
2018-07-17T18:48:23.019Z,24.72
2018-07-17T18:49:25.907Z,24.69
2018-07-17T18:50:28.585Z,24.70
2018-07-17T18:51:33.383Z,23.81
2018-07-17T18:52:36.974Z,24.50
2018-07-17T18:53:39.533Z,24.73
2018-07-17T18:54:42.942Z,24.79
2018-07-17T18:55:46.803Z,24.71
2018-07-17T18:56:49.334Z,24.69
2018-07-17T18:57:51.957Z,24.72
2018-07-17T18:58:54.699Z,24.69
2018-07-17T18:59:57.312Z,24.71
2018-07-17T19:34:43.640Z,24.49
2018-07-17T19:35:46.373Z,23.44
2018-07-17T19:36:50.430Z,24.60
2018-07-17T19:37:55.284Z,24.66
2018-07-17T19:38:57.870Z,24.74
2018-07-17T19:40:04.657Z,24.76
2018-07-17T19:41:08.490Z,24.84
2018-07-17T19:42:13.034Z,24.99
2018-07-17T19:43:16.397Z,25.10
2018-07-17T19:44:21.212Z,25.09
2018-07-17T19:45:27.531Z,25.14
2018-07-17T19:46:33.470Z,25.17
2018-07-17T19:47:38.406Z,25.19
2018-07-17T19:48:49.469Z,25.21
2018-07-17T19:51:01.929Z,25.29
2018-07-17T19:52:08.740Z,25.33
2018-07-17T19:53:13.538Z,25.25
2018-07-17T19:54:17.230Z,25.26
2018-07-17T19:55:20.300Z,25.17
2018-07-17T19:56:24.331Z,25.23
2018-07-17T19:57:29.524Z,25.26
2018-07-17T19:58:33.154Z,25.27
2018-07-17T19:59:36.078Z,25.30
2018-07-17T20:01:52.822Z,25.37
2018-07-17T20:02:56.368Z,25.38
2018-07-17T20:03:59.296Z,25.40
2018-07-17T20:05:02.059Z,25.37
2018-07-17T20:06:07.617Z,25.37
2018-07-17T20:07:10.412Z,25.39
2018-07-17T20:08:18.496Z,25.37
2018-07-17T20:09:25.055Z,25.39
2018-07-17T20:10:29.564Z,25.40
2018-07-17T20:11:35.419Z,25.38
2018-07-17T20:12:38.658Z,24.99
2018-07-17T20:13:41.256Z,25.43
2018-07-17T20:14:43.819Z,25.43
2018-07-17T20:15:49.557Z,24.36
2018-07-17T20:16:53.289Z,25.43
2018-07-17T20:17:56.848Z,25.41
2018-07-17T20:18:59.518Z,25.41
2018-07-17T20:20:05.157Z,25.42
2018-07-17T20:21:09.552Z,25.41
2018-07-17T20:22:12.388Z,25.35
2018-07-17T20:23:20.167Z,25.34
2018-07-17T20:24:25.003Z,25.35
2018-07-17T20:25:28.276Z,25.35
2018-07-17T20:26:32.070Z,24.32
2018-07-17T20:28:47.771Z,25.38
2018-07-17T20:29:56.389Z,25.38
2018-07-17T20:30:59.651Z,25.39
2018-07-17T20:32:05.086Z,25.41
2018-07-17T20:33:08.276Z,25.37
2018-07-17T20:34:10.937Z,25.38
2018-07-17T20:35:13.446Z,25.47
2018-07-17T20:36:16.341Z,25.53
2018-07-17T20:37:19.219Z,23.91
2018-07-17T20:38:21.792Z,24.63
2018-07-17T20:39:24.337Z,25.56
2018-07-17T20:40:26.896Z,25.55
2018-07-17T20:41:29.600Z,25.51
2018-07-17T20:42:32.434Z,25.51
2018-07-17T20:43:35.267Z,25.58
2018-07-17T20:44:38.933Z,25.59
2018-07-17T20:45:42.111Z,25.56
2018-07-17T20:46:44.784Z,25.56
2018-07-17T20:47:47.416Z,25.55
2018-07-17T20:48:51.815Z,25.57
2018-07-17T20:49:55.798Z,25.49
2018-07-17T20:50:58.771Z,25.48
2018-07-17T20:52:01.351Z,25.49
2018-07-17T20:53:08.647Z,25.40
2018-07-17T20:54:11.712Z,25.22
2018-07-17T20:55:17.221Z,25.25
2018-07-17T20:56:20.129Z,25.17
2018-07-17T20:58:31.743Z,25.29
2018-07-17T20:59:34.582Z,25.29
2018-07-17T21:00:38.204Z,25.25
2018-07-17T21:01:41.672Z,25.23
2018-07-17T21:02:47.665Z,24.37
2018-07-17T21:03:50.241Z,25.25
2018-07-17T21:04:53.505Z,25.31
2018-07-17T21:05:56.273Z,25.32
2018-07-17T21:07:02.247Z,25.32
2018-07-17T21:08:05.535Z,25.29
2018-07-17T21:09:08.955Z,25.29
2018-07-17T21:10:16.246Z,25.28
2018-07-17T21:11:18.904Z,25.24
2018-07-17T21:12:21.498Z,25.21
2018-07-17T21:13:25.314Z,25.14
2018-07-17T21:14:28.337Z,25.11
2018-07-17T21:15:30.924Z,25.05
2018-07-17T21:16:33.448Z,25.02
2018-07-17T21:17:36.028Z,25.01
2018-07-17T21:18:39.219Z,24.98
2018-07-17T21:19:44.271Z,24.97
2018-07-17T21:20:46.814Z,24.98
2018-07-17T21:21:52.754Z,25.02
2018-07-17T21:22:58.221Z,25.06
2018-07-17T21:25:11.611Z,25.14
2018-07-17T21:27:25.011Z,24.16
2018-07-17T21:28:28.157Z,25.23
2018-07-17T21:29:30.712Z,25.21
2018-07-17T21:30:33.537Z,25.18
2018-07-17T21:31:36.858Z,25.13
2018-07-17T21:32:39.850Z,25.09
2018-07-17T21:33:42.428Z,25.03
2018-07-17T21:35:56.185Z,24.89
2018-07-17T21:36:58.726Z,24.83
2018-07-17T21:38:01.285Z,24.77
2018-07-17T21:39:04.191Z,24.79
2018-07-17T21:40:06.748Z,24.78
2018-07-17T21:41:10.472Z,24.73
2018-07-17T21:42:15.194Z,24.74
2018-07-17T21:44:29.539Z,24.85
2018-07-17T21:45:36.670Z,24.79
2018-07-17T21:46:39.696Z,24.68
2018-07-17T21:47:43.336Z,24.66
2018-07-17T21:48:51.361Z,24.65
2018-07-17T21:49:56.438Z,24.78
2018-07-17T21:52:07.146Z,24.89
2018-07-17T21:53:09.678Z,24.90
2018-07-17T21:54:13.280Z,24.94
2018-07-17T21:55:16.563Z,24.90
2018-07-17T21:56:19.703Z,24.89
2018-07-17T21:57:24.280Z,24.90
2018-07-17T21:58:26.822Z,24.89
2018-07-17T21:59:29.345Z,24.78
2018-07-17T22:00:32.486Z,24.70
2018-07-17T22:01:35.912Z,24.64
2018-07-17T22:02:38.456Z,24.59
2018-07-17T22:03:41.267Z,24.52
2018-07-17T22:04:46.812Z,24.54
2018-07-17T22:05:50.342Z,24.54
2018-07-17T22:06:53.045Z,24.53
2018-07-17T22:07:57.072Z,24.52
2018-07-17T22:08:59.586Z,24.47
2018-07-17T22:10:02.450Z,24.49
2018-07-17T22:11:05.063Z,24.47
2018-07-17T22:12:07.609Z,24.44
2018-07-17T22:13:10.809Z,24.44
2018-07-17T22:14:13.357Z,24.43
2018-07-17T22:15:16.898Z,24.39
2018-07-17T22:16:19.799Z,24.40
2018-07-17T22:17:22.358Z,24.52
2018-07-17T22:18:24.872Z,24.55
2018-07-17T22:19:27.406Z,24.57
2018-07-17T22:20:30.051Z,24.60
2018-07-17T22:21:32.637Z,24.65
2018-07-17T22:22:36.381Z,24.64
2018-07-17T22:23:38.878Z,24.62
2018-07-17T22:24:41.939Z,24.63
2018-07-17T22:25:44.491Z,24.61
2018-07-17T22:26:47.028Z,24.61
2018-07-17T22:27:49.550Z,24.56
2018-07-17T22:28:52.925Z,24.58
2018-07-17T22:29:55.493Z,24.62
2018-07-17T22:30:58.018Z,24.66
2018-07-17T22:32:00.560Z,24.74
2018-07-17T22:33:03.678Z,24.79
2018-07-17T22:34:06.176Z,24.78
